Time;durP1;ratioP1;P1;durP2;ratioP2;P2;SDS_P1;SDS_P2;PMS_P1;PMS_P2;Temp;Humidity;BMP_temperature;BMP_pressure;BME280_temperature;BME280_humidity;BME280_pressure;Samples;Min_cycle;Max_cycle;Signal;HPM_P1;HPM_P2
2021/11/29 00:01:38;;;;;;;15.48;10.52;;;;;;;3.62;78.80;98706.03;4997321;28;20045;-62
2021/11/29 00:04:04;;;;;;;13.35;10.35;;;;;;;3.62;78.84;98711.16;4996891;28;20033;-62
2021/11/29 00:06:29;;;;;;;12.70;9.77;;;;;;;3.61;78.61;98709.41;5012564;28;20129;-62
2021/11/29 00:08:55;;;;;;;16.90;11.68;;;;;;;3.60;79.13;98712.81;5014434;28;20406;-62
2021/11/29 00:11:21;;;;;;;16.25;10.93;;;;;;;3.58;78.81;98720.47;4996959;28;20064;-62
2021/11/29 00:13:47;;;;;;;14.75;11.30;;;;;;;3.60;79.09;98723.94;5014485;28;20464;-62
2021/11/29 00:16:12;;;;;;;15.57;10.38;;;;;;;3.59;78.89;98717.06;5014487;28;20034;-62
2021/11/29 00:18:38;;;;;;;16.15;11.95;;;;;;;3.58;79.17;98720.47;5014213;28;20053;-62
2021/11/29 00:21:05;;;;;;;16.75;12.00;;;;;;;3.56;78.68;98722.13;5014336;28;20079;-62
2021/11/29 00:23:31;;;;;;;18.40;12.02;;;;;;;3.57;78.94;98720.44;4980881;28;20085;-63
2021/11/29 00:25:57;;;;;;;17.50;12.40;;;;;;;3.57;79.06;98717.88;5012983;28;20034;-62
2021/11/29 00:28:23;;;;;;;16.13;11.10;;;;;;;3.57;78.82;98723.88;4996638;28;20120;-62
2021/11/29 00:30:49;;;;;;;17.15;12.07;;;;;;;3.55;79.49;98725.53;5014481;28;20133;-62
2021/11/29 00:33:16;;;;;;;18.27;11.77;;;;;;;3.53;78.73;98726.31;5012988;28;20037;-62
2021/11/29 00:35:42;;;;;;;14.65;10.82;;;;;;;3.54;79.01;98718.66;5012876;28;20069;-62
2021/11/29 00:38:09;;;;;;;16.02;10.85;;;;;;;3.55;79.46;98724.66;5013741;28;20120;-62
2021/11/29 00:40:35;;;;;;;17.10;11.73;;;;;;;3.55;79.04;98728.06;5012514;28;20030;-61
2021/11/29 00:43:01;;;;;;;21.38;12.80;;;;;;;3.55;78.72;98732.34;5012707;28;20061;-62
2021/11/29 00:45:26;;;;;;;17.42;10.90;;;;;;;3.56;78.86;98732.38;5013863;28;20139;-62
2021/11/29 00:47:52;;;;;;;16.02;12.45;;;;;;;3.57;79.21;98743.50;5012893;28;20081;-61
2021/11/29 00:50:19;;;;;;;18.35;11.45;;;;;;;3.56;79.20;98737.50;5014041;28;20083;-62
2021/11/29 00:52:45;;;;;;;17.95;11.20;;;;;;;3.56;78.49;98737.50;4996232;28;20515;-62
2021/11/29 00:55:12;;;;;;;14.57;10.85;;;;;;;3.57;78.69;98743.50;5013559;28;20069;-61
2021/11/29 00:57:38;;;;;;;16.35;12.18;;;;;;;3.57;79.15;98748.63;5012465;28;20493;-61
2021/11/29 01:00:12;;;;;;;15.07;11.23;;;;;;;3.57;79.03;98753.75;4996339;28;20029;-62
2021/11/29 01:02:38;;;;;;;18.77;11.73;;;;;;;3.55;78.90;98753.69;5012375;28;20049;-62
2021/11/29 01:05:04;;;;;;;18.77;11.00;;;;;;;3.56;79.02;98755.44;4996148;28;20056;-62
2021/11/29 01:07:30;;;;;;;17.60;11.13;;;;;;;3.57;78.97;98753.75;4979808;28;20405;-62
2021/11/29 01:09:56;;;;;;;14.90;10.23;;;;;;;3.57;79.21;98758.88;5013916;28;20508;-62
2021/11/29 01:12:21;;;;;;;17.33;10.18;;;;;;;3.57;79.26;98758.88;5013862;28;20030;-62
2021/11/29 01:14:47;;;;;;;14.27;10.38;;;;;;;3.56;78.97;98758.00;5013682;28;20046;-62
2021/11/29 01:17:13;;;;;;;19.40;12.13;;;;;;;3.55;78.78;98756.25;5015761;28;20042;-62
2021/11/29 01:19:38;;;;;;;16.52;9.55;;;;;;;3.56;79.06;98762.28;5017530;28;20113;-62
2021/11/29 01:22:05;;;;;;;17.27;9.88;;;;;;;3.54;79.12;98757.09;5017580;28;20038;-62
2021/11/29 01:24:31;;;;;;;16.85;11.02;;;;;;;3.55;79.30;98771.63;5000672;28;20037;-62
2021/11/29 01:26:56;;;;;;;19.90;11.15;;;;;;;3.56;78.75;98767.41;5017557;28;20394;-61
2021/11/29 01:29:22;;;;;;;14.50;10.13;;;;;;;3.55;78.96;98771.63;5016222;28;20103;-62
2021/11/29 01:31:50;;;;;;;16.33;9.77;;;;;;;3.54;78.75;98769.91;5000368;28;20048;-61
2021/11/29 01:34:16;;;;;;;15.35;9.82;;;;;;;3.54;79.14;98777.59;5016162;28;20034;-62
2021/11/29 01:36:42;;;;;;;18.02;11.00;;;;;;;3.54;78.88;98780.16;5015693;28;20049;-62
2021/11/29 01:39:09;;;;;;;13.70;10.07;;;;;;;3.54;78.89;98777.59;5017570;28;20034;-62
2021/11/29 01:41:34;;;;;;;16.13;9.73;;;;;;;3.53;78.73;98778.41;5015975;28;20490;-62
2021/11/29 01:44:00;;;;;;;15.25;9.65;;;;;;;3.54;79.04;98777.59;5016057;28;20157;-62
2021/11/29 01:46:26;;;;;;;16.17;10.13;;;;;;;3.53;78.31;98785.25;5015928;28;20034;-62
2021/11/29 01:48:52;;;;;;;22.40;11.18;;;;;;;3.54;79.20;98786.97;4999505;28;20052;-61
2021/11/29 01:51:17;;;;;;;15.48;9.95;;;;;;;3.53;78.80;98798.91;5015961;28;20041;-61
2021/11/29 01:53:43;;;;;;;14.75;10.32;;;;;;;3.53;78.48;98796.34;5016083;28;20456;-61
2021/11/29 01:56:09;;;;;;;15.38;10.02;;;;;;;3.53;78.53;98795.50;5015844;28;20034;-61
2021/11/29 01:58:37;;;;;;;16.50;8.60;;;;;;;3.54;79.04;98804.91;5016057;28;20030;-61
2021/11/29 02:01:07;;;;;;;15.27;9.75;;;;;;;3.52;79.10;98804.84;5016024;28;20034;-62
2021/11/29 02:03:34;;;;;;;14.68;9.15;;;;;;;3.51;78.92;98800.56;5015959;28;20119;-62
2021/11/29 02:06:00;;;;;;;15.90;10.50;;;;;;;3.51;78.67;98815.94;4999127;28;20034;-61
2021/11/29 02:08:25;;;;;;;15.55;10.25;;;;;;;3.44;79.24;98811.50;5016700;28;20042;-60
2021/11/29 02:10:51;;;;;;;15.60;10.88;;;;;;;3.44;79.01;98814.06;5016670;28;20045;-61
2021/11/29 02:13:18;;;;;;;13.93;9.40;;;;;;;3.42;78.82;98810.59;5016750;28;20481;-61
2021/11/29 02:15:50;;;;;;;16.08;11.70;;;;;;;3.41;78.74;98814.88;5015591;28;20029;-61
2021/11/29 02:18:16;;;;;;;17.92;11.98;;;;;;;3.41;78.78;98816.53;5016517;28;20034;-61
2021/11/29 02:21:20;;;;;;;18.17;12.13;;;;;;;3.40;78.66;98820.81;5015483;28;20077;-61
2021/11/29 02:23:54;;;;;;;19.88;13.75;;;;;;;3.38;79.25;98825.03;5013417;28;20045;-61
2021/11/29 02:26:23;;;;;;;22.02;12.88;;;;;;;3.40;79.01;98823.38;4999102;28;20045;-61
2021/11/29 02:28:52;;;;;;;21.80;14.23;;;;;;;3.41;78.65;98820.00;5014313;28;20041;-62
2021/11/29 02:31:21;;;;;;;20.70;14.13;;;;;;;3.41;78.93;98824.22;5015109;28;20468;-62
2021/11/29 02:33:46;;;;;;;25.83;15.45;;;;;;;3.41;79.00;98820.00;4982998;28;20546;-62
2021/11/29 02:36:12;;;;;;;22.00;15.88;;;;;;;3.38;78.87;98819.03;5016229;28;20074;-62
2021/11/29 02:38:38;;;;;;;25.73;16.17;;;;;;;3.38;78.66;98825.03;5016136;28;20030;-62
2021/11/29 02:41:04;;;;;;;21.15;15.75;;;;;;;3.38;78.68;98821.59;5016265;28;20041;-62
2021/11/29 02:43:30;;;;;;;26.48;17.10;;;;;;;3.38;78.78;98822.47;5014958;28;20084;-62
2021/11/29 02:45:55;;;;;;;23.50;15.70;;;;;;;3.37;79.30;98818.16;5015774;28;20037;-61
2021/11/29 02:48:40;;;;;;;22.30;15.95;;;;;;;3.38;78.66;98821.59;5016066;28;20077;-61
2021/11/29 02:51:05;;;;;;;27.90;17.15;;;;;;;3.33;78.84;98822.34;5016223;28;20034;-61
2021/11/29 02:53:31;;;;;;;25.25;17.02;;;;;;;3.34;78.72;98829.22;5015255;28;20084;-61
2021/11/29 02:55:56;;;;;;;23.25;15.90;;;;;;;3.34;78.38;98826.66;5014704;28;20485;-61
2021/11/29 02:58:22;;;;;;;25.30;17.13;;;;;;;3.32;78.41;98828.31;5015682;28;20030;-61
2021/11/29 03:00:47;;;;;;;25.90;16.77;;;;;;;3.32;78.76;98830.88;5014617;28;20088;-61
2021/11/29 03:03:13;;;;;;;27.42;16.55;;;;;;;3.31;78.72;98838.50;5016195;28;20046;-61
2021/11/29 03:05:38;;;;;;;25.23;17.40;;;;;;;3.33;78.85;98841.97;5015685;28;20041;-61
2021/11/29 03:08:04;;;;;;;29.42;18.35;;;;;;;3.32;79.04;98843.66;5015899;28;20113;-61
2021/11/29 03:10:31;;;;;;;31.05;19.15;;;;;;;3.28;78.76;98843.53;5014593;28;20038;-61
2021/11/29 03:12:57;;;;;;;29.38;17.67;;;;;;;3.32;79.05;98851.34;4997856;28;20045;-61
2021/11/29 03:15:22;;;;;;;31.20;18.30;;;;;;;3.33;78.86;98852.22;5014119;28;20034;-61
2021/11/29 03:17:48;;;;;;;30.70;19.45;;;;;;;3.31;79.24;98844.50;5014047;28;20034;-61
2021/11/29 03:20:14;;;;;;;28.17;17.27;;;;;;;3.32;78.78;98850.47;4997923;28;20038;-61
2021/11/29 03:22:41;;;;;;;35.88;20.33;;;;;;;3.33;78.93;98854.75;5015486;28;20115;-61
2021/11/29 03:25:10;;;;;;;37.60;19.80;;;;;;;3.31;78.82;98865.00;4997904;28;20128;-61
2021/11/29 03:27:36;;;;;;;30.80;19.05;;;;;;;3.31;79.04;98859.88;5015243;28;20038;-61
2021/11/29 03:30:03;;;;;;;32.15;19.25;;;;;;;3.32;78.74;98866.72;5014089;28;20033;-60
2021/11/29 03:32:29;;;;;;;35.95;20.98;;;;;;;3.32;78.92;98860.72;4997629;28;20044;-61
2021/11/29 03:34:54;;;;;;;39.25;20.40;;;;;;;3.33;79.10;98873.59;5014409;28;20117;-61
2021/11/29 03:37:21;;;;;;;40.78;20.95;;;;;;;3.31;78.67;98870.09;5014187;28;20038;-61
2021/11/29 03:39:46;;;;;;;34.33;19.45;;;;;;;3.32;78.75;98879.53;4997633;28;20096;-61
2021/11/29 03:42:12;;;;;;;37.17;18.92;;;;;;;3.27;78.76;98873.41;5014922;28;20042;-61
2021/11/29 03:44:38;;;;;;;33.15;19.38;;;;;;;3.31;79.07;98893.16;5014074;28;20099;-61
2021/11/29 03:47:06;;;;;;;34.88;20.27;;;;;;;3.32;78.58;98892.34;4997475;28;20038;-61
2021/11/29 03:49:32;;;;;;;34.92;18.92;;;;;;;3.31;79.14;98893.16;5013871;28;20038;-61
2021/11/29 03:51:58;;;;;;;33.97;20.35;;;;;;;3.28;78.93;98898.19;4997439;28;20401;-61
2021/11/29 03:54:25;;;;;;;37.85;20.42;;;;;;;3.29;78.90;98906.72;5013595;28;20400;-61
2021/11/29 03:56:51;;;;;;;37.85;21.10;;;;;;;3.28;78.87;98905.88;5013479;28;20038;-61
2021/11/29 03:59:18;;;;;;;33.25;20.83;;;;;;;3.24;78.61;98901.50;5014424;28;20060;-61
2021/11/29 04:01:45;;;;;;;35.75;22.13;;;;;;;3.25;79.27;98905.78;4997270;28;20061;-61
2021/11/29 04:04:11;;;;;;;33.95;20.38;;;;;;;3.26;78.77;98910.09;4997402;28;20033;-62
2021/11/29 04:06:37;;;;;;;37.33;19.95;;;;;;;3.27;79.00;98913.53;5013427;28;20064;-62
2021/11/29 04:09:03;;;;;;;33.20;20.10;;;;;;;3.28;78.84;98913.56;5014769;28;20045;-62
2021/11/29 04:11:30;;;;;;;34.35;19.83;;;;;;;3.29;78.93;98916.97;4996800;28;20548;-62
2021/11/29 04:13:55;;;;;;;35.00;19.95;;;;;;;3.31;78.90;98920.44;5013343;28;20034;-62
2021/11/29 04:16:21;;;;;;;32.75;19.70;;;;;;;3.32;78.78;98922.19;5013298;28;20128;-61
2021/11/29 04:18:46;;;;;;;32.75;19.55;;;;;;;3.31;78.21;98918.78;5013037;28;20468;-61
2021/11/29 04:21:14;;;;;;;33.25;19.70;;;;;;;3.31;78.92;98916.22;5014230;28;20036;-61
2021/11/29 04:23:43;;;;;;;30.50;18.70;;;;;;;3.31;78.80;98921.34;5012853;28;20034;-61
2021/11/29 04:26:11;;;;;;;32.65;18.90;;;;;;;3.28;78.52;98916.13;5012990;28;20041;-62
2021/11/29 04:28:37;;;;;;;38.78;18.48;;;;;;;3.29;78.31;98916.97;5014008;28;20042;-62
2021/11/29 04:31:02;;;;;;;38.20;18.88;;;;;;;3.29;78.78;98919.53;5014332;28;20045;-62
2021/11/29 04:33:28;;;;;;;35.65;19.77;;;;;;;3.27;78.86;98929.75;5014187;28;20493;-61
2021/11/29 04:35:53;;;;;;;31.13;18.27;;;;;;;3.26;78.44;98928.00;5014354;28;20057;-62
2021/11/29 04:38:19;;;;;;;29.38;17.95;;;;;;;3.28;78.94;98940.84;5013964;28;20436;-62
2021/11/29 04:40:45;;;;;;;32.97;19.45;;;;;;;3.27;78.88;98936.59;5013942;28;20046;-62
2021/11/29 04:43:10;;;;;;;29.50;18.52;;;;;;;3.27;78.61;98941.69;5012843;28;20121;-62
2021/11/29 04:45:36;;;;;;;32.15;19.42;;;;;;;3.23;78.92;98945.84;4996422;28;20096;-62
2021/11/29 04:48:02;;;;;;;29.80;18.17;;;;;;;3.25;78.58;98944.19;5013956;28;20033;-62
2021/11/29 04:50:28;;;;;;;28.15;18.38;;;;;;;3.25;79.16;98944.19;5012308;28;20067;-61
2021/11/29 04:52:54;;;;;;;29.75;18.70;;;;;;;3.26;78.98;98945.09;5013524;28;20038;-61
2021/11/29 04:55:19;;;;;;;29.70;18.33;;;;;;;3.26;78.50;98943.38;5012582;28;20042;-62
2021/11/29 04:57:44;;;;;;;33.95;19.35;;;;;;;3.28;79.11;98940.84;5013951;28;20058;-61
2021/11/29 05:00:13;;;;;;;28.67;18.08;;;;;;;3.26;78.92;98935.69;5013794;28;20038;-61
2021/11/29 05:02:39;;;;;;;28.73;18.63;;;;;;;3.25;78.86;98949.31;4995929;28;20448;-61
2021/11/29 05:05:05;;;;;;;28.60;16.70;;;;;;;3.25;78.90;98951.03;5013772;28;20489;-61
2021/11/29 05:07:31;;;;;;;25.15;17.45;;;;;;;3.18;78.52;98950.84;4996082;28;20133;-61
2021/11/29 05:09:57;;;;;;;29.45;19.23;;;;;;;3.17;79.16;98948.25;5013606;28;20117;-61
2021/11/29 05:12:22;;;;;;;27.70;17.27;;;;;;;3.17;79.02;98953.38;5013862;28;20065;-61
2021/11/29 05:14:49;;;;;;;23.35;15.77;;;;;;;3.18;78.75;98944.88;5012282;28;20044;-61
2021/11/29 05:17:16;;;;;;;27.90;18.13;;;;;;;3.17;78.90;98948.25;4996027;28;20531;-61
2021/11/29 05:19:42;;;;;;;25.27;16.52;;;;;;;3.16;78.64;98952.50;5012247;28;20485;-61
2021/11/29 05:22:07;;;;;;;22.70;16.50;;;;;;;3.17;78.72;98958.50;5012433;28;20045;-61
2021/11/29 05:24:33;;;;;;;27.60;17.17;;;;;;;3.18;78.69;98960.22;5013632;28;20038;-61
2021/11/29 05:26:59;;;;;;;22.02;15.38;;;;;;;3.19;78.93;98952.59;5012304;28;20034;-61
2021/11/29 05:29:25;;;;;;;24.13;15.48;;;;;;;3.19;78.73;98950.03;5013525;28;20038;-61
2021/11/29 05:31:51;;;;;;;25.30;16.90;;;;;;;3.21;78.74;98962.84;4995952;28;20049;-61
2021/11/29 05:34:17;;;;;;;24.95;15.27;;;;;;;3.15;78.84;98960.13;5013366;28;20080;-61
2021/11/29 05:36:42;;;;;;;23.95;15.43;;;;;;;3.17;78.66;98958.50;5013557;28;20034;-61
2021/11/29 05:39:08;;;;;;;22.20;15.38;;;;;;;3.18;78.51;98960.22;5013327;28;20030;-61
2021/11/29 05:41:34;;;;;;;23.10;15.40;;;;;;;3.17;78.41;98968.75;5013104;28;20129;-61
2021/11/29 05:43:59;;;;;;;25.02;15.65;;;;;;;3.16;78.60;98980.66;5013572;28;20117;-60
2021/11/29 05:46:25;;;;;;;23.73;14.45;;;;;;;3.16;78.91;98988.34;5013195;28;20068;-61
2021/11/29 05:48:51;;;;;;;22.15;15.05;;;;;;;3.17;79.01;98991.78;4995783;28;20088;-61
2021/11/29 05:51:18;;;;;;;23.77;15.82;;;;;;;3.17;78.41;98997.75;5012030;28;20496;-60
2021/11/29 05:53:44;;;;;;;19.00;14.57;;;;;;;3.17;79.00;98992.63;4995688;28;20508;-61
2021/11/29 05:56:10;;;;;;;22.15;14.07;;;;;;;3.18;78.75;99001.22;4995616;28;20041;-61
2021/11/29 05:58:36;;;;;;;21.58;13.82;;;;;;;3.18;78.53;99008.88;5013223;28;20038;-61
2021/11/29 06:01:03;;;;;;;22.83;13.55;;;;;;;3.17;78.93;98996.91;4995969;28;20088;-61
2021/11/29 06:03:29;;;;;;;22.50;14.45;;;;;;;3.16;78.75;99002.84;5012584;28;20054;-61
2021/11/29 06:05:57;;;;;;;23.20;14.75;;;;;;;3.15;78.52;98996.00;5015729;28;20490;-61
2021/11/29 06:08:23;;;;;;;19.75;13.15;;;;;;;3.17;78.60;98982.41;5016815;28;20060;-62
2021/11/29 06:10:48;;;;;;;25.02;15.10;;;;;;;3.19;78.91;98990.13;5015506;28;20478;-62
2021/11/29 06:13:15;;;;;;;22.27;15.35;;;;;;;3.18;78.31;98993.53;4999600;28;20046;-61
2021/11/29 06:15:41;;;;;;;21.38;14.25;;;;;;;3.19;79.06;99003.78;5016847;28;20108;-62
2021/11/29 06:18:08;;;;;;;19.95;13.48;;;;;;;3.21;79.09;99008.94;5016739;28;20069;-62
2021/11/29 06:20:34;;;;;;;19.50;13.90;;;;;;;3.19;79.08;99019.16;5016526;28;20042;-61
2021/11/29 06:23:00;;;;;;;21.05;14.63;;;;;;;3.18;78.77;99037.06;4999086;28;20030;-61
2021/11/29 06:25:26;;;;;;;24.27;14.35;;;;;;;3.18;79.27;99055.84;5015199;28;20038;-62
2021/11/29 06:27:54;;;;;;;20.60;14.07;;;;;;;3.19;78.56;99054.16;4999168;28;20070;-62
2021/11/29 06:30:21;;;;;;;23.88;15.23;;;;;;;3.17;78.71;99059.22;4999088;28;20070;-61
2021/11/29 06:32:47;;;;;;;25.02;14.68;;;;;;;3.18;78.43;99066.06;5015473;28;20029;-62
2021/11/29 06:35:13;;;;;;;19.00;13.13;;;;;;;3.18;78.71;99066.06;4998765;28;20054;-62
2021/11/29 06:37:42;;;;;;;21.58;14.00;;;;;;;3.14;79.03;99063.38;5015151;28;20034;-62
2021/11/29 06:40:08;;;;;;;19.23;13.73;;;;;;;3.14;78.62;99059.13;5014946;28;20048;-62
2021/11/29 06:42:34;;;;;;;21.55;14.02;;;;;;;3.15;79.03;99049.75;4999020;28;20030;-62
2021/11/29 06:45:00;;;;;;;21.48;14.75;;;;;;;3.15;79.13;99045.50;4999015;28;20045;-62
2021/11/29 06:47:25;;;;;;;23.75;14.75;;;;;;;3.16;79.09;99051.50;5015217;28;20117;-62
2021/11/29 06:49:51;;;;;;;22.48;15.82;;;;;;;3.17;78.61;99055.81;5016115;28;20041;-61
2021/11/29 06:52:17;;;;;;;27.98;15.73;;;;;;;3.18;79.09;99060.94;5016007;28;20401;-62
2021/11/29 06:54:43;;;;;;;20.98;14.27;;;;;;;3.19;78.96;99055.00;4998102;28;20062;-61
2021/11/29 06:57:09;;;;;;;24.55;14.65;;;;;;;3.20;79.18;99056.75;5014749;28;20073;-61
2021/11/29 06:59:35;;;;;;;21.60;14.50;;;;;;;3.20;78.78;99069.56;5014456;28;20476;-61
2021/11/29 07:02:03;;;;;;;22.92;13.98;;;;;;;3.22;78.98;99069.59;5014550;28;20397;-62
2021/11/29 07:04:29;;;;;;;20.58;14.05;;;;;;;3.23;79.00;99075.59;5015749;28;20041;-61
2021/11/29 07:06:54;;;;;;;21.27;13.95;;;;;;;3.23;78.92;99080.72;5014602;28;20401;-61
2021/11/29 07:09:20;;;;;;;25.88;14.38;;;;;;;3.23;78.87;99073.03;5014406;28;20033;-61
2021/11/29 07:11:45;;;;;;;26.15;14.48;;;;;;;3.25;78.78;99073.97;5015630;28;20038;-61
2021/11/29 07:14:13;;;;;;;21.55;13.13;;;;;;;3.22;79.01;99071.28;5015004;28;20355;-61
2021/11/29 07:16:45;;;;;;;21.42;13.27;;;;;;;3.23;78.87;99075.59;5015297;28;20061;-61
2021/11/29 07:19:11;;;;;;;22.77;13.70;;;;;;;3.21;79.08;99075.53;5015542;28;20041;-61
2021/11/29 07:21:36;;;;;;;22.35;13.80;;;;;;;3.23;78.64;99080.72;5015456;28;20042;-62
2021/11/29 07:24:02;;;;;;;22.70;14.70;;;;;;;3.24;78.96;99092.69;5015349;28;20567;-62
2021/11/29 07:26:28;;;;;;;31.25;15.50;;;;;;;3.24;78.86;99087.59;5014014;28;20481;-62
2021/11/29 07:28:53;;;;;;;22.45;14.57;;;;;;;3.23;78.92;99094.38;5015291;28;20091;-61
2021/11/29 07:31:20;;;;;;;24.95;15.23;;;;;;;3.22;78.60;99084.09;5015514;28;20454;-61
2021/11/29 07:33:47;;;;;;;19.40;14.13;;;;;;;3.22;78.93;99095.19;5015259;28;20057;-61
2021/11/29 07:36:13;;;;;;;26.77;15.57;;;;;;;3.23;78.66;99102.06;5014282;28;20081;-61
2021/11/29 07:38:39;;;;;;;25.25;15.63;;;;;;;3.22;78.57;99102.03;5014966;28;20458;-61
2021/11/29 07:41:05;;;;;;;21.88;15.38;;;;;;;3.24;78.66;99103.81;5015106;28;20092;-61
2021/11/29 07:43:31;;;;;;;25.55;15.55;;;;;;;3.23;78.19;99108.88;5014055;28;20080;-61
2021/11/29 07:45:57;;;;;;;26.00;16.17;;;;;;;3.23;78.70;99111.44;5015233;28;20069;-61
2021/11/29 07:48:23;;;;;;;25.65;15.43;;;;;;;3.23;78.79;99111.44;5015282;28;20056;-62
2021/11/29 07:50:49;;;;;;;23.95;15.60;;;;;;;3.22;78.80;99120.81;5014989;28;20044;-60
2021/11/29 07:53:16;;;;;;;24.17;14.82;;;;;;;3.23;78.98;99117.44;5013564;28;20042;-61
2021/11/29 07:55:41;;;;;;;22.92;15.45;;;;;;;3.20;78.73;99120.78;5015093;28;20169;-60
2021/11/29 07:58:07;;;;;;;22.67;13.95;;;;;;;3.22;78.91;99125.94;5014734;28;20504;-61
2021/11/29 08:00:38;;;;;;;25.08;14.32;;;;;;;3.22;78.55;99132.75;5013707;28;20056;-61
2021/11/29 08:03:05;;;;;;;26.30;14.13;;;;;;;3.23;78.55;99130.22;4996845;28;20054;-61
2021/11/29 08:05:33;;;;;;;22.13;14.88;;;;;;;3.23;79.07;99134.50;4997117;28;20174;-61
2021/11/29 08:08:00;;;;;;;21.52;13.27;;;;;;;3.20;78.62;99125.91;4996949;28;20032;-61
2021/11/29 08:10:26;;;;;;;28.88;15.40;;;;;;;3.20;78.39;99133.56;5014597;28;20045;-60
2021/11/29 08:12:52;;;;;;;21.13;12.73;;;;;;;3.20;78.59;99140.38;5013396;28;20065;-61
2021/11/29 08:15:19;;;;;;;19.58;11.98;;;;;;;3.19;78.39;99136.09;5014593;28;20131;-61
2021/11/29 08:17:45;;;;;;;19.83;11.95;;;;;;;3.16;78.54;99141.13;5013110;28;20105;-61
2021/11/29 08:20:12;;;;;;;19.55;11.45;;;;;;;3.18;78.59;99142.03;5013061;28;20128;-62
2021/11/29 08:22:37;;;;;;;20.42;11.50;;;;;;;3.13;78.94;99134.19;5014335;28;20045;-61
2021/11/29 08:25:05;;;;;;;20.60;11.43;;;;;;;3.16;78.93;99149.66;5014645;28;20037;-61
2021/11/29 08:27:33;;;;;;;22.80;12.10;;;;;;;3.15;79.04;99147.06;5012221;28;20030;-61
2021/11/29 08:30:00;;;;;;;18.83;11.57;;;;;;;3.16;79.02;99151.38;5012952;28;20124;-61
2021/11/29 08:32:26;;;;;;;19.25;11.02;;;;;;;3.17;78.84;99153.09;5013009;28;20060;-61
2021/11/29 08:34:51;;;;;;;19.85;11.00;;;;;;;3.17;78.40;99153.09;5014118;28;20481;-62
2021/11/29 08:37:17;;;;;;;14.98;10.02;;;;;;;3.17;79.01;99163.34;5014648;28;20083;-61
2021/11/29 08:39:42;;;;;;;16.15;10.05;;;;;;;3.17;78.82;99163.34;5013812;28;20117;-61
2021/11/29 08:42:08;;;;;;;16.70;10.38;;;;;;;3.17;78.60;99159.09;5014326;28;20034;-61
2021/11/29 08:44:34;;;;;;;18.48;8.80;;;;;;;3.16;78.90;99165.03;5012579;28;20072;-61
2021/11/29 08:47:01;;;;;;;15.07;8.90;;;;;;;3.15;78.76;99163.28;5013867;28;20047;-61
2021/11/29 08:49:28;;;;;;;16.42;9.50;;;;;;;3.14;78.77;99168.38;5012731;28;20401;-61
2021/11/29 08:51:55;;;;;;;11.80;7.95;;;;;;;3.16;78.74;99166.72;5013880;28;20037;-61
2021/11/29 08:54:22;;;;;;;13.35;8.50;;;;;;;3.16;78.53;99171.84;4996595;28;20045;-61
2021/11/29 08:56:48;;;;;;;14.35;8.98;;;;;;;3.15;78.70;99170.97;4996231;28;20041;-61
2021/11/29 08:59:16;;;;;;;13.88;8.52;;;;;;;3.16;78.61;99172.72;5013632;28;20489;-61
2021/11/29 09:01:45;;;;;;;15.40;8.10;;;;;;;3.16;78.57;99177.81;4996385;28;20404;-62
2021/11/29 09:04:13;;;;;;;13.20;7.85;;;;;;;3.15;78.55;99175.22;5012802;28;20397;-61
2021/11/29 09:06:39;;;;;;;11.13;7.30;;;;;;;3.15;78.90;99165.00;5014179;28;20037;-61
2021/11/29 09:09:05;;;;;;;11.68;7.93;;;;;;;3.15;78.21;99172.66;5012465;28;20030;-61
2021/11/29 09:11:30;;;;;;;10.88;7.10;;;;;;;3.14;78.72;99173.50;5012694;28;20153;-61
2021/11/29 09:13:56;;;;;;;12.40;7.15;;;;;;;3.15;78.59;99177.78;5012517;28;20545;-61
2021/11/29 09:16:23;;;;;;;8.88;7.00;;;;;;;3.13;78.55;99174.31;5013570;28;20030;-61
2021/11/29 09:18:48;;;;;;;13.43;7.43;;;;;;;3.12;78.84;99181.09;5012287;28;20100;-61
2021/11/29 09:21:26;;;;;;;8.93;5.97;;;;;;;3.13;78.42;99184.56;5014029;28;20441;-62
2021/11/29 09:23:52;;;;;;;9.93;6.38;;;;;;;3.13;78.73;99192.22;5012640;28;20038;-61
2021/11/29 09:26:17;;;;;;;8.32;5.97;;;;;;;3.10;78.75;99187.00;5012121;28;20448;-61
2021/11/29 09:28:43;;;;;;;10.20;6.70;;;;;;;3.12;78.33;99200.72;5013539;28;20037;-61
2021/11/29 09:31:10;;;;;;;9.02;6.38;;;;;;;3.09;78.72;99201.50;5013737;28;20038;-62
2021/11/29 09:33:35;;;;;;;12.05;6.22;;;;;;;3.09;78.28;99208.31;5013399;28;20045;-61
2021/11/29 09:36:03;;;;;;;10.93;6.93;;;;;;;3.06;78.59;99206.53;5012970;28;20042;-61
2021/11/29 09:38:29;;;;;;;11.10;5.65;;;;;;;3.05;78.78;99204.78;5015075;28;20034;-61
2021/11/29 09:40:55;;;;;;;6.85;5.45;;;;;;;3.04;78.81;99206.47;5016060;28;20136;-61
2021/11/29 09:43:21;;;;;;;7.03;5.38;;;;;;;3.08;78.81;99216.81;4999703;28;20493;-61
2021/11/29 09:45:48;;;;;;;7.60;5.50;;;;;;;3.08;79.14;99227.94;4999570;28;20038;-61
2021/11/29 09:48:16;;;;;;;8.65;6.22;;;;;;;3.08;78.15;99224.50;5015892;28;20378;-61
2021/11/29 09:50:46;;;;;;;8.77;5.00;;;;;;;3.08;78.75;99222.81;5016213;28;20038;-61
2021/11/29 09:53:18;;;;;;;7.30;4.97;;;;;;;3.09;78.98;99221.09;5016404;28;20033;-60
2021/11/29 09:55:45;;;;;;;7.55;5.00;;;;;;;3.10;78.53;99217.72;4999774;28;20033;-60
2021/11/29 09:58:11;;;;;;;8.98;5.10;;;;;;;3.10;78.50;99223.75;5015686;28;20034;-60
2021/11/29 10:00:41;;;;;;;4.70;3.88;;;;;;;3.11;78.50;99230.59;5015758;28;20485;-60
2021/11/29 10:03:07;;;;;;;8.32;5.55;;;;;;;3.12;78.97;99232.31;5015988;28;20041;-60
2021/11/29 10:05:35;;;;;;;5.43;4.50;;;;;;;3.13;78.35;99231.50;5015192;28;20042;-60
2021/11/29 10:08:19;;;;;;;6.53;4.35;;;;;;;3.12;78.45;99228.91;5015999;28;20041;-60
2021/11/29 10:10:48;;;;;;;5.53;4.90;;;;;;;3.12;78.49;99231.47;5015570;28;20034;-60
2021/11/29 10:13:13;;;;;;;12.20;5.78;;;;;;;3.12;79.01;99234.03;5015485;28;20038;-61
2021/11/29 10:15:41;;;;;;;10.95;5.18;;;;;;;3.11;78.71;99228.03;5016699;28;20488;-61
2021/11/29 10:18:21;;;;;;;9.88;5.15;;;;;;;3.10;78.43;99222.84;5015423;28;20084;-61
2021/11/29 10:21:09;;;;;;;8.90;5.45;;;;;;;3.11;78.27;99227.16;4999326;28;20053;-61
2021/11/29 10:23:39;;;;;;;10.60;6.03;;;;;;;3.09;78.86;99226.22;4999306;28;20509;-61
2021/11/29 10:26:35;;;;;;;8.43;5.10;;;;;;;3.07;78.24;99228.75;5015347;28;20038;-61
2021/11/29 10:29:00;;;;;;;7.85;4.68;;;;;;;3.07;78.34;99221.06;5013900;28;20053;-61
2021/11/29 10:31:37;;;;;;;10.63;5.72;;;;;;;3.06;78.45;99216.78;5016837;28;20041;-61
2021/11/29 10:34:06;;;;;;;11.82;4.63;;;;;;;3.05;78.13;99215.88;5015000;28;20046;-61
2021/11/29 10:36:35;;;;;;;7.88;4.75;;;;;;;3.08;78.34;99214.25;4998793;28;20037;-61
2021/11/29 10:39:10;;;;;;;8.57;4.60;;;;;;;3.09;78.45;99219.44;5015283;28;20033;-60
2021/11/29 10:41:40;;;;;;;5.90;4.30;;;;;;;3.09;78.53;99219.44;5015246;28;20060;-62
2021/11/29 10:44:12;;;;;;;8.02;5.68;;;;;;;3.10;78.24;99221.19;5015133;28;20038;-60
2021/11/29 10:46:41;;;;;;;8.82;5.63;;;;;;;3.09;79.09;99221.09;5014943;28;20037;-61
2021/11/29 10:49:12;;;;;;;6.30;4.75;;;;;;;3.11;78.43;99206.66;5014046;28;20037;-61
2021/11/29 10:51:44;;;;;;;8.75;5.68;;;;;;;3.10;78.73;99218.63;5016695;28;20041;-61
2021/11/29 10:54:17;;;;;;;6.45;4.60;;;;;;;3.10;79.07;99228.88;5016479;28;20033;-61
2021/11/29 10:56:45;;;;;;;8.23;5.22;;;;;;;3.11;78.61;99230.59;5015055;28;20108;-62
2021/11/29 10:59:17;;;;;;;9.63;5.57;;;;;;;3.10;78.51;99233.09;4998202;28;20034;-62
2021/11/29 11:01:47;;;;;;;9.00;5.50;;;;;;;3.09;78.43;99234.81;4997755;28;20505;-61
2021/11/29 11:04:23;;;;;;;8.25;5.05;;;;;;;3.09;78.44;99232.25;5014636;28;20041;-61
2021/11/29 11:07:11;;;;;;;7.82;5.63;;;;;;;3.10;78.24;99231.41;4997557;28;20057;-61
2021/11/29 11:09:41;;;;;;;9.68;5.88;;;;;;;3.10;78.72;99235.66;5014314;28;20041;-62
2021/11/29 11:12:14;;;;;;;9.43;5.30;;;;;;;3.10;78.91;99233.97;4998070;28;20555;-62
2021/11/29 11:14:50;;;;;;;5.00;4.50;;;;;;;3.12;78.96;99234.03;4997950;28;20029;-62
2021/11/29 11:17:17;;;;;;;7.80;4.97;;;;;;;3.11;78.75;99245.97;5014569;28;20034;-61
2021/11/29 11:19:57;;;;;;;7.32;5.10;;;;;;;3.10;78.42;99251.03;5014243;28;20037;-61
2021/11/29 11:22:29;;;;;;;7.35;5.60;;;;;;;3.11;79.07;99252.75;5015973;28;20072;-61
2021/11/29 11:25:07;;;;;;;6.72;4.63;;;;;;;3.10;78.56;99240.78;5015410;28;20544;-60
2021/11/29 11:27:36;;;;;;;8.63;4.90;;;;;;;3.11;78.86;99245.97;5014104;28;20429;-62
2021/11/29 11:30:25;;;;;;;7.22;5.45;;;;;;;3.11;78.57;99250.19;5014193;28;20046;-61